sensor_id;sensor_type;location;lat;lon;timestamp;temperature;humidity
3868;DHT22;1949;48.152;11.528;2023-04-29T00:00:21;15.90;55.80
3868;DHT22;1949;48.152;11.528;2023-04-29T00:02:58;15.90;55.90
3868;DHT22;1949;48.152;11.528;2023-04-29T00:05:25;15.90;55.90
3868;DHT22;1949;48.152;11.528;2023-04-29T00:07:51;15.80;55.70
3868;DHT22;1949;48.152;11.528;2023-04-29T00:10:17;15.80;55.80
3868;DHT22;1949;48.152;11.528;2023-04-29T00:12:45;15.90;55.90
3868;DHT22;1949;48.152;11.528;2023-04-29T00:15:10;15.80;55.70
3868;DHT22;1949;48.152;11.528;2023-04-29T00:17:38;15.70;55.70
3868;DHT22;1949;48.152;11.528;2023-04-29T00:20:07;15.70;55.70
3868;DHT22;1949;48.152;11.528;2023-04-29T00:22:41;15.60;55.80
3868;DHT22;1949;48.152;11.528;2023-04-29T00:25:09;15.60;56.00
3868;DHT22;1949;48.152;11.528;2023-04-29T00:27:36;15.50;56.00
3868;DHT22;1949;48.152;11.528;2023-04-29T00:30:02;15.50;56.10
3868;DHT22;1949;48.152;11.528;2023-04-29T00:32:28;15.60;56.30
3868;DHT22;1949;48.152;11.528;2023-04-29T00:34:54;15.60;56.30
3868;DHT22;1949;48.152;11.528;2023-04-29T00:37:20;15.50;56.20
3868;DHT22;1949;48.152;11.528;2023-04-29T00:39:46;15.50;56.20
3868;DHT22;1949;48.152;11.528;2023-04-29T00:42:16;15.60;56.30
3868;DHT22;1949;48.152;11.528;2023-04-29T00:44:41;15.60;56.40
3868;DHT22;1949;48.152;11.528;2023-04-29T00:47:11;15.60;56.30
3868;DHT22;1949;48.152;11.528;2023-04-29T00:49:41;15.60;56.30
3868;DHT22;1949;48.152;11.528;2023-04-29T00:52:07;15.60;56.30
3868;DHT22;1949;48.152;11.528;2023-04-29T00:54:34;15.60;56.40
3868;DHT22;1949;48.152;11.528;2023-04-29T00:57:01;15.60;56.40
3868;DHT22;1949;48.152;11.528;2023-04-29T00:59:30;15.60;56.40
3868;DHT22;1949;48.152;11.528;2023-04-29T01:02:03;15.60;56.50
3868;DHT22;1949;48.152;11.528;2023-04-29T01:04:35;15.60;56.40
3868;DHT22;1949;48.152;11.528;2023-04-29T01:07:16;15.60;56.40
3868;DHT22;1949;48.152;11.528;2023-04-29T01:10:14;15.60;56.40
3868;DHT22;1949;48.152;11.528;2023-04-29T01:13:30;15.60;56.50
3868;DHT22;1949;48.152;11.528;2023-04-29T01:16:02;15.60;56.50
3868;DHT22;1949;48.152;11.528;2023-04-29T01:18:49;15.60;56.30
3868;DHT22;1949;48.152;11.528;2023-04-29T01:21:24;15.60;56.40
3868;DHT22;1949;48.152;11.528;2023-04-29T01:23:57;15.60;56.50
3868;DHT22;1949;48.152;11.528;2023-04-29T01:26:27;15.60;56.50
3868;DHT22;1949;48.152;11.528;2023-04-29T01:32:13;15.60;56.70
3868;DHT22;1949;48.152;11.528;2023-04-29T01:34:59;15.60;57.30
3868;DHT22;1949;48.152;11.528;2023-04-29T01:37:51;15.60;56.70
3868;DHT22;1949;48.152;11.528;2023-04-29T01:40:33;15.60;56.70
3868;DHT22;1949;48.152;11.528;2023-04-29T01:43:03;15.60;56.70
3868;DHT22;1949;48.152;11.528;2023-04-29T01:45:33;15.60;56.70
3868;DHT22;1949;48.152;11.528;2023-04-29T01:47:59;15.60;56.90
3868;DHT22;1949;48.152;11.528;2023-04-29T01:50:28;15.60;56.90
3868;DHT22;1949;48.152;11.528;2023-04-29T01:52:53;15.70;57.00
3868;DHT22;1949;48.152;11.528;2023-04-29T01:55:21;15.70;56.80
3868;DHT22;1949;48.152;11.528;2023-04-29T01:57:49;15.80;56.80
3868;DHT22;1949;48.152;11.528;2023-04-29T02:00:16;15.80;56.80
3868;DHT22;1949;48.152;11.528;2023-04-29T02:02:42;15.80;56.80
3868;DHT22;1949;48.152;11.528;2023-04-29T02:05:08;15.80;56.80
3868;DHT22;1949;48.152;11.528;2023-04-29T02:07:35;15.80;56.90
3868;DHT22;1949;48.152;11.528;2023-04-29T02:10:01;15.80;57.00
3868;DHT22;1949;48.152;11.528;2023-04-29T02:12:26;15.80;57.00
3868;DHT22;1949;48.152;11.528;2023-04-29T02:14:54;15.80;57.00
3868;DHT22;1949;48.152;11.528;2023-04-29T02:17:20;15.90;57.00
3868;DHT22;1949;48.152;11.528;2023-04-29T02:19:47;15.80;56.90
3868;DHT22;1949;48.152;11.528;2023-04-29T02:22:14;15.90;57.10
3868;DHT22;1949;48.152;11.528;2023-04-29T02:24:41;15.90;57.00
3868;DHT22;1949;48.152;11.528;2023-04-29T02:27:08;15.90;57.20
3868;DHT22;1949;48.152;11.528;2023-04-29T02:29:35;15.90;57.20
3868;DHT22;1949;48.152;11.528;2023-04-29T02:32:02;16.00;57.20
3868;DHT22;1949;48.152;11.528;2023-04-29T02:34:29;16.00;57.20
3868;DHT22;1949;48.152;11.528;2023-04-29T02:36:57;16.00;57.20
3868;DHT22;1949;48.152;11.528;2023-04-29T02:39:23;16.00;57.10
3868;DHT22;1949;48.152;11.528;2023-04-29T02:41:53;16.10;57.20
3868;DHT22;1949;48.152;11.528;2023-04-29T02:44:20;16.00;57.10
3868;DHT22;1949;48.152;11.528;2023-04-29T02:46:55;16.10;57.20
3868;DHT22;1949;48.152;11.528;2023-04-29T02:49:22;16.10;57.20
3868;DHT22;1949;48.152;11.528;2023-04-29T02:51:48;16.10;57.10
3868;DHT22;1949;48.152;11.528;2023-04-29T02:54:17;16.10;57.10
3868;DHT22;1949;48.152;11.528;2023-04-29T02:56:44;16.10;57.10
3868;DHT22;1949;48.152;11.528;2023-04-29T02:59:10;16.10;57.30
3868;DHT22;1949;48.152;11.528;2023-04-29T03:01:38;16.10;57.30
3868;DHT22;1949;48.152;11.528;2023-04-29T03:04:04;16.20;57.30
3868;DHT22;1949;48.152;11.528;2023-04-29T03:06:34;16.20;57.20
3868;DHT22;1949;48.152;11.528;2023-04-29T03:09:01;16.20;57.30
3868;DHT22;1949;48.152;11.528;2023-04-29T03:11:28;16.20;57.30
3868;DHT22;1949;48.152;11.528;2023-04-29T03:13:53;16.20;57.30
3868;DHT22;1949;48.152;11.528;2023-04-29T03:16:25;16.20;57.30
3868;DHT22;1949;48.152;11.528;2023-04-29T03:18:55;16.20;57.30
3868;DHT22;1949;48.152;11.528;2023-04-29T03:21:21;16.20;57.30
3868;DHT22;1949;48.152;11.528;2023-04-29T03:23:48;16.20;57.20
3868;DHT22;1949;48.152;11.528;2023-04-29T03:26:15;16.20;57.30
3868;DHT22;1949;48.152;11.528;2023-04-29T03:28:41;16.30;57.40
3868;DHT22;1949;48.152;11.528;2023-04-29T03:31:08;16.30;57.30
3868;DHT22;1949;48.152;11.528;2023-04-29T03:33:36;16.30;57.30
3868;DHT22;1949;48.152;11.528;2023-04-29T03:36:02;16.30;57.30
3868;DHT22;1949;48.152;11.528;2023-04-29T03:38:28;16.30;57.20
3868;DHT22;1949;48.152;11.528;2023-04-29T03:41:14;16.30;57.20
3868;DHT22;1949;48.152;11.528;2023-04-29T03:43:41;16.30;57.20
3868;DHT22;1949;48.152;11.528;2023-04-29T03:46:11;16.30;57.10
3868;DHT22;1949;48.152;11.528;2023-04-29T03:48:39;16.30;57.10
3868;DHT22;1949;48.152;11.528;2023-04-29T03:51:12;16.30;57.30
3868;DHT22;1949;48.152;11.528;2023-04-29T03:53:43;16.30;57.30
3868;DHT22;1949;48.152;11.528;2023-04-29T03:56:27;16.20;57.20
3868;DHT22;1949;48.152;11.528;2023-04-29T03:59:28;16.30;57.30
3868;DHT22;1949;48.152;11.528;2023-04-29T04:01:55;16.30;57.30
3868;DHT22;1949;48.152;11.528;2023-04-29T04:04:32;16.20;57.20
3868;DHT22;1949;48.152;11.528;2023-04-29T04:06:59;16.20;57.30
3868;DHT22;1949;48.152;11.528;2023-04-29T04:09:29;16.20;57.30
3868;DHT22;1949;48.152;11.528;2023-04-29T04:12:02;16.20;57.30
3868;DHT22;1949;48.152;11.528;2023-04-29T04:14:35;16.20;57.30
3868;DHT22;1949;48.152;11.528;2023-04-29T04:17:04;16.20;57.30
3868;DHT22;1949;48.152;11.528;2023-04-29T04:19:36;16.20;57.40
3868;DHT22;1949;48.152;11.528;2023-04-29T04:22:03;16.30;57.60
3868;DHT22;1949;48.152;11.528;2023-04-29T04:25:02;16.30;57.50
3868;DHT22;1949;48.152;11.528;2023-04-29T04:27:30;16.30;57.40
3868;DHT22;1949;48.152;11.528;2023-04-29T04:29:58;16.30;57.40
3868;DHT22;1949;48.152;11.528;2023-04-29T04:32:26;16.30;57.50
3868;DHT22;1949;48.152;11.528;2023-04-29T04:35:08;16.30;57.50
3868;DHT22;1949;48.152;11.528;2023-04-29T04:47:09;16.20;57.50
3868;DHT22;1949;48.152;11.528;2023-04-29T04:52:29;16.30;57.60
3868;DHT22;1949;48.152;11.528;2023-04-29T04:55:08;16.30;57.70
3868;DHT22;1949;48.152;11.528;2023-04-29T05:00:48;16.30;57.70
3868;DHT22;1949;48.152;11.528;2023-04-29T05:13:14;16.50;57.70
3868;DHT22;1949;48.152;11.528;2023-04-29T05:15:43;16.50;57.60
3868;DHT22;1949;48.152;11.528;2023-04-29T05:18:11;16.60;57.80
3868;DHT22;1949;48.152;11.528;2023-04-29T05:20:38;16.60;57.80
3868;DHT22;1949;48.152;11.528;2023-04-29T05:23:07;16.70;57.70
3868;DHT22;1949;48.152;11.528;2023-04-29T05:25:39;16.60;57.60
3868;DHT22;1949;48.152;11.528;2023-04-29T05:28:06;16.70;57.80
3868;DHT22;1949;48.152;11.528;2023-04-29T05:30:32;16.70;57.70
3868;DHT22;1949;48.152;11.528;2023-04-29T05:33:00;16.70;57.70
3868;DHT22;1949;48.152;11.528;2023-04-29T05:35:31;16.70;57.70
3868;DHT22;1949;48.152;11.528;2023-04-29T05:38:06;16.70;57.70
3868;DHT22;1949;48.152;11.528;2023-04-29T05:40:34;16.80;57.80
3868;DHT22;1949;48.152;11.528;2023-04-29T05:43:00;16.80;57.80
3868;DHT22;1949;48.152;11.528;2023-04-29T05:45:30;16.90;57.80
3868;DHT22;1949;48.152;11.528;2023-04-29T05:47:59;16.90;58.00
3868;DHT22;1949;48.152;11.528;2023-04-29T05:50:25;17.00;57.90
3868;DHT22;1949;48.152;11.528;2023-04-29T05:52:50;17.00;57.70
3868;DHT22;1949;48.152;11.528;2023-04-29T05:55:20;17.00;57.70
3868;DHT22;1949;48.152;11.528;2023-04-29T05:57:46;17.00;57.70
3868;DHT22;1949;48.152;11.528;2023-04-29T06:00:12;17.00;57.60
3868;DHT22;1949;48.152;11.528;2023-04-29T06:02:38;17.10;57.60
3868;DHT22;1949;48.152;11.528;2023-04-29T06:05:07;17.10;57.70
3868;DHT22;1949;48.152;11.528;2023-04-29T06:07:53;17.10;57.60
3868;DHT22;1949;48.152;11.528;2023-04-29T06:10:19;17.10;57.60
3868;DHT22;1949;48.152;11.528;2023-04-29T06:12:46;17.20;57.80
3868;DHT22;1949;48.152;11.528;2023-04-29T06:15:40;17.20;57.80
3868;DHT22;1949;48.152;11.528;2023-04-29T06:18:09;17.20;57.70
3868;DHT22;1949;48.152;11.528;2023-04-29T06:20:38;17.20;57.60
3868;DHT22;1949;48.152;11.528;2023-04-29T06:23:13;17.20;57.70
3868;DHT22;1949;48.152;11.528;2023-04-29T06:25:40;17.20;57.70
3868;DHT22;1949;48.152;11.528;2023-04-29T06:31:28;17.20;57.80
3868;DHT22;1949;48.152;11.528;2023-04-29T06:33:55;17.30;57.80
3868;DHT22;1949;48.152;11.528;2023-04-29T06:36:33;17.30;57.80
3868;DHT22;1949;48.152;11.528;2023-04-29T06:38:59;17.30;57.90
3868;DHT22;1949;48.152;11.528;2023-04-29T06:41:24;17.30;58.50
3868;DHT22;1949;48.152;11.528;2023-04-29T06:43:51;17.30;57.90
3868;DHT22;1949;48.152;11.528;2023-04-29T06:46:17;17.30;58.00
3868;DHT22;1949;48.152;11.528;2023-04-29T06:48:44;17.30;57.80
3868;DHT22;1949;48.152;11.528;2023-04-29T06:51:10;17.30;57.80
3868;DHT22;1949;48.152;11.528;2023-04-29T06:53:37;17.30;57.80
3868;DHT22;1949;48.152;11.528;2023-04-29T06:56:02;17.30;57.90
3868;DHT22;1949;48.152;11.528;2023-04-29T06:58:35;17.40;58.00
3868;DHT22;1949;48.152;11.528;2023-04-29T07:01:00;17.40;57.80
3868;DHT22;1949;48.152;11.528;2023-04-29T07:03:28;17.50;57.80
3868;DHT22;1949;48.152;11.528;2023-04-29T07:05:56;17.50;57.70
3868;DHT22;1949;48.152;11.528;2023-04-29T07:08:31;17.50;57.70
3868;DHT22;1949;48.152;11.528;2023-04-29T07:10:59;17.50;57.70
3868;DHT22;1949;48.152;11.528;2023-04-29T07:13:27;17.50;57.50
3868;DHT22;1949;48.152;11.528;2023-04-29T07:15:53;17.60;57.70
3868;DHT22;1949;48.152;11.528;2023-04-29T07:18:22;17.60;57.70
3868;DHT22;1949;48.152;11.528;2023-04-29T07:20:49;17.70;57.70
3868;DHT22;1949;48.152;11.528;2023-04-29T07:23:30;17.70;57.70
3868;DHT22;1949;48.152;11.528;2023-04-29T07:26:11;17.70;57.70
3868;DHT22;1949;48.152;11.528;2023-04-29T07:28:40;17.70;57.40
3868;DHT22;1949;48.152;11.528;2023-04-29T07:31:08;17.70;57.50
3868;DHT22;1949;48.152;11.528;2023-04-29T07:33:43;17.70;57.30
3868;DHT22;1949;48.152;11.528;2023-04-29T07:36:10;17.80;57.40
3868;DHT22;1949;48.152;11.528;2023-04-29T07:38:35;17.80;57.50
3868;DHT22;1949;48.152;11.528;2023-04-29T07:41:01;17.80;58.10
3868;DHT22;1949;48.152;11.528;2023-04-29T07:43:30;17.90;57.50
3868;DHT22;1949;48.152;11.528;2023-04-29T07:45:56;18.00;57.60
3868;DHT22;1949;48.152;11.528;2023-04-29T07:48:24;18.00;57.30
3868;DHT22;1949;48.152;11.528;2023-04-29T07:50:50;18.00;57.20
3868;DHT22;1949;48.152;11.528;2023-04-29T07:53:19;18.00;57.20
3868;DHT22;1949;48.152;11.528;2023-04-29T07:55:44;18.10;57.80
3868;DHT22;1949;48.152;11.528;2023-04-29T07:58:11;18.10;57.10
3868;DHT22;1949;48.152;11.528;2023-04-29T08:00:37;18.10;57.10
3868;DHT22;1949;48.152;11.528;2023-04-29T08:03:06;18.10;57.10
3868;DHT22;1949;48.152;11.528;2023-04-29T08:05:38;18.10;56.90
3868;DHT22;1949;48.152;11.528;2023-04-29T08:08:04;18.20;57.00
3868;DHT22;1949;48.152;11.528;2023-04-29T08:10:30;18.20;56.90
3868;DHT22;1949;48.152;11.528;2023-04-29T08:13:08;18.20;56.90
3868;DHT22;1949;48.152;11.528;2023-04-29T08:15:33;18.30;56.80
3868;DHT22;1949;48.152;11.528;2023-04-29T08:18:11;18.30;56.60
3868;DHT22;1949;48.152;11.528;2023-04-29T08:20:40;18.20;56.60
3868;DHT22;1949;48.152;11.528;2023-04-29T08:23:07;18.20;56.50
3868;DHT22;1949;48.152;11.528;2023-04-29T08:25:33;18.30;56.60
3868;DHT22;1949;48.152;11.528;2023-04-29T08:28:09;18.30;56.60
3868;DHT22;1949;48.152;11.528;2023-04-29T08:30:45;18.40;56.70
3868;DHT22;1949;48.152;11.528;2023-04-29T08:33:13;18.40;56.40
3868;DHT22;1949;48.152;11.528;2023-04-29T08:35:39;18.40;56.30
3868;DHT22;1949;48.152;11.528;2023-04-29T08:38:06;18.40;56.10
3868;DHT22;1949;48.152;11.528;2023-04-29T08:40:35;18.50;56.00
3868;DHT22;1949;48.152;11.528;2023-04-29T08:43:06;18.50;56.00
3868;DHT22;1949;48.152;11.528;2023-04-29T08:45:34;18.50;55.90
3868;DHT22;1949;48.152;11.528;2023-04-29T08:48:02;18.50;55.90
3868;DHT22;1949;48.152;11.528;2023-04-29T08:50:38;18.60;55.80
3868;DHT22;1949;48.152;11.528;2023-04-29T08:53:09;18.60;55.70
3868;DHT22;1949;48.152;11.528;2023-04-29T08:55:45;18.70;55.60
3868;DHT22;1949;48.152;11.528;2023-04-29T08:58:14;18.70;55.50
3868;DHT22;1949;48.152;11.528;2023-04-29T09:00:43;18.70;55.40
3868;DHT22;1949;48.152;11.528;2023-04-29T09:03:30;18.70;55.30
3868;DHT22;1949;48.152;11.528;2023-04-29T09:06:11;18.70;55.50
3868;DHT22;1949;48.152;11.528;2023-04-29T09:08:42;18.70;55.20
3868;DHT22;1949;48.152;11.528;2023-04-29T09:11:08;18.80;55.10
3868;DHT22;1949;48.152;11.528;2023-04-29T09:13:36;18.70;55.00
3868;DHT22;1949;48.152;11.528;2023-04-29T09:16:02;18.70;55.10
3868;DHT22;1949;48.152;11.528;2023-04-29T09:19:00;18.70;55.10
3868;DHT22;1949;48.152;11.528;2023-04-29T09:21:26;18.80;55.20
3868;DHT22;1949;48.152;11.528;2023-04-29T09:23:58;18.90;55.10
3868;DHT22;1949;48.152;11.528;2023-04-29T09:26:26;18.90;55.00
3868;DHT22;1949;48.152;11.528;2023-04-29T09:29:13;18.90;54.80
3868;DHT22;1949;48.152;11.528;2023-04-29T09:31:48;18.90;54.60
3868;DHT22;1949;48.152;11.528;2023-04-29T09:34:33;18.90;54.50
3868;DHT22;1949;48.152;11.528;2023-04-29T09:37:26;18.90;54.60
3868;DHT22;1949;48.152;11.528;2023-04-29T09:39:53;18.80;54.60
3868;DHT22;1949;48.152;11.528;2023-04-29T09:42:26;18.80;54.40
3868;DHT22;1949;48.152;11.528;2023-04-29T09:44:58;18.90;54.40
3868;DHT22;1949;48.152;11.528;2023-04-29T09:47:29;18.90;54.40
3868;DHT22;1949;48.152;11.528;2023-04-29T09:50:10;18.90;54.10
3868;DHT22;1949;48.152;11.528;2023-04-29T09:52:44;18.90;54.10
3868;DHT22;1949;48.152;11.528;2023-04-29T09:55:12;19.00;54.10
3868;DHT22;1949;48.152;11.528;2023-04-29T09:57:47;19.00;54.00
3868;DHT22;1949;48.152;11.528;2023-04-29T10:00:13;19.00;53.90
3868;DHT22;1949;48.152;11.528;2023-04-29T10:02:45;19.10;53.90
3868;DHT22;1949;48.152;11.528;2023-04-29T10:05:15;19.10;53.70
3868;DHT22;1949;48.152;11.528;2023-04-29T10:07:46;19.10;53.70
3868;DHT22;1949;48.152;11.528;2023-04-29T10:10:31;19.20;53.60
3868;DHT22;1949;48.152;11.528;2023-04-29T10:12:59;19.20;53.80
3868;DHT22;1949;48.152;11.528;2023-04-29T10:15:32;19.20;53.80
3868;DHT22;1949;48.152;11.528;2023-04-29T10:18:20;19.20;53.80
3868;DHT22;1949;48.152;11.528;2023-04-29T10:20:48;19.20;54.00
3868;DHT22;1949;48.152;11.528;2023-04-29T10:23:15;19.20;53.80
3868;DHT22;1949;48.152;11.528;2023-04-29T10:25:52;19.20;53.80
3868;DHT22;1949;48.152;11.528;2023-04-29T10:28:19;19.20;53.80
3868;DHT22;1949;48.152;11.528;2023-04-29T10:30:50;19.10;53.70
3868;DHT22;1949;48.152;11.528;2023-04-29T10:33:19;19.20;53.90
3868;DHT22;1949;48.152;11.528;2023-04-29T10:35:47;19.20;53.90
3868;DHT22;1949;48.152;11.528;2023-04-29T10:38:29;19.20;53.70
3868;DHT22;1949;48.152;11.528;2023-04-29T10:41:01;19.20;53.80
3868;DHT22;1949;48.152;11.528;2023-04-29T10:43:35;19.20;53.80
3868;DHT22;1949;48.152;11.528;2023-04-29T10:46:33;19.30;53.50
3868;DHT22;1949;48.152;11.528;2023-04-29T10:49:21;19.30;53.50
3868;DHT22;1949;48.152;11.528;2023-04-29T10:51:47;19.40;53.60
3868;DHT22;1949;48.152;11.528;2023-04-29T10:54:18;19.40;53.30
3868;DHT22;1949;48.152;11.528;2023-04-29T10:56:53;19.40;53.20
3868;DHT22;1949;48.152;11.528;2023-04-29T11:02:05;19.50;53.10
3868;DHT22;1949;48.152;11.528;2023-04-29T11:05:05;19.50;53.10
3868;DHT22;1949;48.152;11.528;2023-04-29T11:07:28;19.50;52.90
3868;DHT22;1949;48.152;11.528;2023-04-29T11:10:02;19.50;52.70
3868;DHT22;1949;48.152;11.528;2023-04-29T11:12:42;19.50;52.70
3868;DHT22;1949;48.152;11.528;2023-04-29T11:15:10;19.50;52.70
3868;DHT22;1949;48.152;11.528;2023-04-29T11:17:51;19.50;52.60
3868;DHT22;1949;48.152;11.528;2023-04-29T11:20:17;19.50;52.60
3868;DHT22;1949;48.152;11.528;2023-04-29T11:22:55;19.60;52.60
3868;DHT22;1949;48.152;11.528;2023-04-29T11:25:27;19.60;52.40
3868;DHT22;1949;48.152;11.528;2023-04-29T11:27:53;19.60;52.20
3868;DHT22;1949;48.152;11.528;2023-04-29T11:30:23;19.70;52.30
3868;DHT22;1949;48.152;11.528;2023-04-29T11:33:08;19.70;52.00
3868;DHT22;1949;48.152;11.528;2023-04-29T11:35:47;19.70;52.00
3868;DHT22;1949;48.152;11.528;2023-04-29T11:38:12;19.80;51.90
3868;DHT22;1949;48.152;11.528;2023-04-29T11:40:58;19.70;51.60
3868;DHT22;1949;48.152;11.528;2023-04-29T11:43:34;19.80;51.70
3868;DHT22;1949;48.152;11.528;2023-04-29T11:46:02;19.80;51.30
3868;DHT22;1949;48.152;11.528;2023-04-29T11:51:40;19.90;51.30
3868;DHT22;1949;48.152;11.528;2023-04-29T11:54:12;19.90;50.90
3868;DHT22;1949;48.152;11.528;2023-04-29T11:56:41;20.00;50.90
3868;DHT22;1949;48.152;11.528;2023-04-29T11:59:08;20.00;50.70
3868;DHT22;1949;48.152;11.528;2023-04-29T12:01:41;20.00;50.50
3868;DHT22;1949;48.152;11.528;2023-04-29T12:04:07;20.00;50.30
3868;DHT22;1949;48.152;11.528;2023-04-29T12:06:51;20.00;50.30
3868;DHT22;1949;48.152;11.528;2023-04-29T12:12:45;20.10;50.50
3868;DHT22;1949;48.152;11.528;2023-04-29T12:15:16;20.20;50.60
3868;DHT22;1949;48.152;11.528;2023-04-29T12:17:54;20.30;50.00
3868;DHT22;1949;48.152;11.528;2023-04-29T12:20:22;20.40;50.00
3868;DHT22;1949;48.152;11.528;2023-04-29T12:22:49;20.40;49.50
3868;DHT22;1949;48.152;11.528;2023-04-29T12:25:26;20.40;49.40
3868;DHT22;1949;48.152;11.528;2023-04-29T12:28:01;20.40;49.50
3868;DHT22;1949;48.152;11.528;2023-04-29T12:30:36;20.40;49.90
3868;DHT22;1949;48.152;11.528;2023-04-29T12:33:08;20.50;49.20
3868;DHT22;1949;48.152;11.528;2023-04-29T12:35:44;20.60;49.10
3868;DHT22;1949;48.152;11.528;2023-04-29T12:40:59;20.90;49.30
3868;DHT22;1949;48.152;11.528;2023-04-29T12:43:32;21.00;48.70
3868;DHT22;1949;48.152;11.528;2023-04-29T12:46:05;21.00;48.40
3868;DHT22;1949;48.152;11.528;2023-04-29T12:48:44;21.10;48.20
3868;DHT22;1949;48.152;11.528;2023-04-29T12:51:20;21.10;48.30
3868;DHT22;1949;48.152;11.528;2023-04-29T12:53:50;21.20;48.30
3868;DHT22;1949;48.152;11.528;2023-04-29T12:56:16;21.20;48.00
3868;DHT22;1949;48.152;11.528;2023-04-29T12:58:55;21.30;47.90
3868;DHT22;1949;48.152;11.528;2023-04-29T13:01:32;21.40;47.80
3868;DHT22;1949;48.152;11.528;2023-04-29T13:03:58;21.60;47.90
3868;DHT22;1949;48.152;11.528;2023-04-29T13:06:42;21.60;47.60
3868;DHT22;1949;48.152;11.528;2023-04-29T13:09:17;21.70;47.70
3868;DHT22;1949;48.152;11.528;2023-04-29T13:11:48;21.70;47.20
3868;DHT22;1949;48.152;11.528;2023-04-29T13:14:32;21.70;47.00
3868;DHT22;1949;48.152;11.528;2023-04-29T13:17:05;21.70;47.30
3868;DHT22;1949;48.152;11.528;2023-04-29T13:19:37;21.80;46.80
3868;DHT22;1949;48.152;11.528;2023-04-29T13:22:03;21.70;46.40
3868;DHT22;1949;48.152;11.528;2023-04-29T13:24:56;21.80;46.60
3868;DHT22;1949;48.152;11.528;2023-04-29T13:27:24;21.90;47.00
3868;DHT22;1949;48.152;11.528;2023-04-29T13:30:03;21.90;46.30
3868;DHT22;1949;48.152;11.528;2023-04-29T13:32:40;22.00;46.50
3868;DHT22;1949;48.152;11.528;2023-04-29T13:35:32;22.20;46.30
3868;DHT22;1949;48.152;11.528;2023-04-29T13:38:02;22.30;46.60
3868;DHT22;1949;48.152;11.528;2023-04-29T13:40:56;22.40;45.80
3868;DHT22;1949;48.152;11.528;2023-04-29T13:43:23;22.50;46.00
3868;DHT22;1949;48.152;11.528;2023-04-29T13:45:56;22.70;45.50
3868;DHT22;1949;48.152;11.528;2023-04-29T13:48:31;22.70;45.10
3868;DHT22;1949;48.152;11.528;2023-04-29T13:50:58;22.90;45.20
3868;DHT22;1949;48.152;11.528;2023-04-29T13:53:28;23.00;44.90
3868;DHT22;1949;48.152;11.528;2023-04-29T13:56:00;23.00;44.50
3868;DHT22;1949;48.152;11.528;2023-04-29T13:58:36;23.00;44.50
3868;DHT22;1949;48.152;11.528;2023-04-29T14:01:03;23.20;44.40
3868;DHT22;1949;48.152;11.528;2023-04-29T14:03:31;23.20;43.90
3868;DHT22;1949;48.152;11.528;2023-04-29T14:06:14;23.20;43.90
3868;DHT22;1949;48.152;11.528;2023-04-29T14:09:00;23.20;44.00
3868;DHT22;1949;48.152;11.528;2023-04-29T14:11:34;23.20;44.20
3868;DHT22;1949;48.152;11.528;2023-04-29T14:14:02;23.20;43.70
3868;DHT22;1949;48.152;11.528;2023-04-29T14:16:29;23.30;44.00
3868;DHT22;1949;48.152;11.528;2023-04-29T14:18:55;23.30;44.00
3868;DHT22;1949;48.152;11.528;2023-04-29T14:21:20;23.40;43.90
3868;DHT22;1949;48.152;11.528;2023-04-29T14:23:50;23.40;43.60
3868;DHT22;1949;48.152;11.528;2023-04-29T14:26:17;23.40;43.70
3868;DHT22;1949;48.152;11.528;2023-04-29T14:28:44;23.50;43.90
3868;DHT22;1949;48.152;11.528;2023-04-29T14:31:09;23.70;43.90
3868;DHT22;1949;48.152;11.528;2023-04-29T14:33:38;23.90;43.90
3868;DHT22;1949;48.152;11.528;2023-04-29T14:36:05;24.10;43.70
3868;DHT22;1949;48.152;11.528;2023-04-29T14:38:31;24.20;43.50
3868;DHT22;1949;48.152;11.528;2023-04-29T14:40:58;24.40;43.40
3868;DHT22;1949;48.152;11.528;2023-04-29T14:43:24;24.60;43.00
3868;DHT22;1949;48.152;11.528;2023-04-29T14:45:50;24.70;42.70
3868;DHT22;1949;48.152;11.528;2023-04-29T14:48:16;24.70;42.30
3868;DHT22;1949;48.152;11.528;2023-04-29T14:50:42;24.60;42.00
3868;DHT22;1949;48.152;11.528;2023-04-29T14:53:07;24.40;41.90
3868;DHT22;1949;48.152;11.528;2023-04-29T14:55:33;24.30;42.10
3868;DHT22;1949;48.152;11.528;2023-04-29T14:57:59;24.30;42.50
3868;DHT22;1949;48.152;11.528;2023-04-29T15:00:27;24.50;42.60
3868;DHT22;1949;48.152;11.528;2023-04-29T15:02:52;24.70;42.50
3868;DHT22;1949;48.152;11.528;2023-04-29T15:05:20;24.90;42.10
3868;DHT22;1949;48.152;11.528;2023-04-29T15:07:45;25.00;41.80
3868;DHT22;1949;48.152;11.528;2023-04-29T15:10:11;25.20;42.20
3868;DHT22;1949;48.152;11.528;2023-04-29T15:12:38;25.40;41.50
3868;DHT22;1949;48.152;11.528;2023-04-29T15:15:06;25.40;40.90
3868;DHT22;1949;48.152;11.528;2023-04-29T15:17:33;25.40;40.80
3868;DHT22;1949;48.152;11.528;2023-04-29T15:19:59;25.50;40.70
3868;DHT22;1949;48.152;11.528;2023-04-29T15:22:25;25.40;40.10
3868;DHT22;1949;48.152;11.528;2023-04-29T15:24:51;25.20;40.00
3868;DHT22;1949;48.152;11.528;2023-04-29T15:27:17;24.90;39.90
3868;DHT22;1949;48.152;11.528;2023-04-29T15:29:43;24.60;40.10
3868;DHT22;1949;48.152;11.528;2023-04-29T15:32:09;24.50;40.50
3868;DHT22;1949;48.152;11.528;2023-04-29T15:34:37;24.50;41.00
3868;DHT22;1949;48.152;11.528;2023-04-29T15:37:11;24.50;40.70
3868;DHT22;1949;48.152;11.528;2023-04-29T15:39:36;24.60;40.70
3868;DHT22;1949;48.152;11.528;2023-04-29T15:42:04;24.60;40.70
3868;DHT22;1949;48.152;11.528;2023-04-29T15:44:32;24.80;40.60
3868;DHT22;1949;48.152;11.528;2023-04-29T15:47:03;24.80;40.30
3868;DHT22;1949;48.152;11.528;2023-04-29T15:49:28;24.90;40.30
3868;DHT22;1949;48.152;11.528;2023-04-29T15:52:08;24.90;40.20
3868;DHT22;1949;48.152;11.528;2023-04-29T15:54:36;25.00;40.30
3868;DHT22;1949;48.152;11.528;2023-04-29T15:57:02;25.00;39.60
3868;DHT22;1949;48.152;11.528;2023-04-29T15:59:31;25.00;39.80
3868;DHT22;1949;48.152;11.528;2023-04-29T16:01:57;25.00;40.20
3868;DHT22;1949;48.152;11.528;2023-04-29T16:04:24;24.90;39.60
3868;DHT22;1949;48.152;11.528;2023-04-29T16:06:51;24.90;39.50
3868;DHT22;1949;48.152;11.528;2023-04-29T16:09:20;24.80;39.30
3868;DHT22;1949;48.152;11.528;2023-04-29T16:11:46;24.80;39.20
3868;DHT22;1949;48.152;11.528;2023-04-29T16:14:11;24.60;39.10
3868;DHT22;1949;48.152;11.528;2023-04-29T16:16:38;24.60;39.20
3868;DHT22;1949;48.152;11.528;2023-04-29T16:19:04;24.50;39.00
3868;DHT22;1949;48.152;11.528;2023-04-29T16:21:29;24.50;39.10
3868;DHT22;1949;48.152;11.528;2023-04-29T16:24:02;24.40;39.00
3868;DHT22;1949;48.152;11.528;2023-04-29T16:26:29;24.30;39.10
3868;DHT22;1949;48.152;11.528;2023-04-29T16:28:56;24.30;39.20
3868;DHT22;1949;48.152;11.528;2023-04-29T16:31:24;24.20;39.10
3868;DHT22;1949;48.152;11.528;2023-04-29T16:33:50;24.20;39.20
3868;DHT22;1949;48.152;11.528;2023-04-29T16:36:16;24.10;39.30
3868;DHT22;1949;48.152;11.528;2023-04-29T16:38:42;24.00;39.40
3868;DHT22;1949;48.152;11.528;2023-04-29T16:41:08;23.90;39.40
3868;DHT22;1949;48.152;11.528;2023-04-29T16:43:34;23.90;39.60
3868;DHT22;1949;48.152;11.528;2023-04-29T16:46:05;23.80;39.60
3868;DHT22;1949;48.152;11.528;2023-04-29T16:48:32;23.70;39.60
3868;DHT22;1949;48.152;11.528;2023-04-29T16:50:57;23.60;39.40